sensor_id;sensor_type;location;lat;lon;timestamp;P1;durP1;ratioP1;P2;durP2;ratioP2
73959;SDS011;62316;48.920;2.342;2024-03-06T00:01:40;11.50;;;9.00;;
73959;SDS011;62316;48.920;2.342;2024-03-06T00:04:05;11.50;;;10.00;;
73959;SDS011;62316;48.920;2.342;2024-03-06T00:06:31;12.75;;;10.75;;
73959;SDS011;62316;48.920;2.342;2024-03-06T00:08:56;10.75;;;9.50;;
73959;SDS011;62316;48.920;2.342;2024-03-06T00:11:21;13.00;;;12.50;;
73959;SDS011;62316;48.920;2.342;2024-03-06T00:13:47;8.25;;;8.25;;
73959;SDS011;62316;48.920;2.342;2024-03-06T00:16:13;13.50;;;12.00;;
73959;SDS011;62316;48.920;2.342;2024-03-06T00:18:38;13.75;;;10.75;;
73959;SDS011;62316;48.920;2.342;2024-03-06T00:21:03;12.00;;;12.00;;
73959;SDS011;62316;48.920;2.342;2024-03-06T00:23:29;10.75;;;10.25;;
73959;SDS011;62316;48.920;2.342;2024-03-06T00:25:54;16.25;;;15.00;;
73959;SDS011;62316;48.920;2.342;2024-03-06T00:28:19;15.00;;;11.25;;
73959;SDS011;62316;48.920;2.342;2024-03-06T00:30:44;11.25;;;10.50;;
73959;SDS011;62316;48.920;2.342;2024-03-06T00:33:12;12.75;;;10.50;;
73959;SDS011;62316;48.920;2.342;2024-03-06T00:35:37;11.75;;;8.50;;
73959;SDS011;62316;48.920;2.342;2024-03-06T00:38:02;12.25;;;11.25;;
73959;SDS011;62316;48.920;2.342;2024-03-06T00:40:28;7.25;;;4.75;;
73959;SDS011;62316;48.920;2.342;2024-03-06T00:42:57;15.75;;;15.75;;
73959;SDS011;62316;48.920;2.342;2024-03-06T00:45:22;12.75;;;12.50;;
73959;SDS011;62316;48.920;2.342;2024-03-06T00:47:50;13.75;;;11.25;;
73959;SDS011;62316;48.920;2.342;2024-03-06T00:50:15;15.25;;;14.00;;
73959;SDS011;62316;48.920;2.342;2024-03-06T00:52:42;13.00;;;12.50;;
73959;SDS011;62316;48.920;2.342;2024-03-06T00:55:08;13.00;;;13.00;;
73959;SDS011;62316;48.920;2.342;2024-03-06T00:57:33;12.00;;;11.50;;
73959;SDS011;62316;48.920;2.342;2024-03-06T00:59:58;15.50;;;14.00;;
73959;SDS011;62316;48.920;2.342;2024-03-06T01:02:24;16.00;;;13.75;;
73959;SDS011;62316;48.920;2.342;2024-03-06T01:04:49;14.50;;;13.25;;
73959;SDS011;62316;48.920;2.342;2024-03-06T01:07:14;16.00;;;14.75;;
73959;SDS011;62316;48.920;2.342;2024-03-06T01:09:39;17.00;;;16.00;;
73959;SDS011;62316;48.920;2.342;2024-03-06T01:12:07;11.50;;;11.50;;
73959;SDS011;62316;48.920;2.342;2024-03-06T01:14:33;15.75;;;14.00;;
73959;SDS011;62316;48.920;2.342;2024-03-06T01:16:58;24.00;;;19.00;;
73959;SDS011;62316;48.920;2.342;2024-03-06T01:19:26;17.75;;;16.25;;
73959;SDS011;62316;48.920;2.342;2024-03-06T01:21:51;20.00;;;18.00;;
73959;SDS011;62316;48.920;2.342;2024-03-06T01:24:16;21.00;;;18.50;;
73959;SDS011;62316;48.920;2.342;2024-03-06T01:26:42;21.00;;;19.25;;
73959;SDS011;62316;48.920;2.342;2024-03-06T01:29:07;17.00;;;16.25;;
73959;SDS011;62316;48.920;2.342;2024-03-06T01:31:32;23.75;;;19.25;;
73959;SDS011;62316;48.920;2.342;2024-03-06T01:33:57;19.25;;;18.25;;
73959;SDS011;62316;48.920;2.342;2024-03-06T01:36:23;21.25;;;19.00;;
73959;SDS011;62316;48.920;2.342;2024-03-06T01:38:48;19.00;;;16.00;;
73959;SDS011;62316;48.920;2.342;2024-03-06T01:41:14;19.00;;;17.50;;
73959;SDS011;62316;48.920;2.342;2024-03-06T01:43:39;22.00;;;17.75;;
73959;SDS011;62316;48.920;2.342;2024-03-06T01:46:05;24.00;;;20.50;;
73959;SDS011;62316;48.920;2.342;2024-03-06T01:48:32;24.00;;;21.25;;
73959;SDS011;62316;48.920;2.342;2024-03-06T01:50:59;24.00;;;20.50;;
73959;SDS011;62316;48.920;2.342;2024-03-06T01:53:25;23.00;;;21.75;;
73959;SDS011;62316;48.920;2.342;2024-03-06T01:55:52;26.50;;;20.50;;
73959;SDS011;62316;48.920;2.342;2024-03-06T01:58:17;24.75;;;21.50;;
73959;SDS011;62316;48.920;2.342;2024-03-06T02:00:43;19.25;;;16.75;;
73959;SDS011;62316;48.920;2.342;2024-03-06T02:03:08;25.00;;;22.25;;
73959;SDS011;62316;48.920;2.342;2024-03-06T02:05:41;24.25;;;22.00;;
73959;SDS011;62316;48.920;2.342;2024-03-06T02:08:08;24.75;;;20.50;;
73959;SDS011;62316;48.920;2.342;2024-03-06T02:10:34;20.75;;;19.00;;
73959;SDS011;62316;48.920;2.342;2024-03-06T02:12:59;19.25;;;19.25;;
73959;SDS011;62316;48.920;2.342;2024-03-06T02:15:25;21.25;;;21.00;;
73959;SDS011;62316;48.920;2.342;2024-03-06T02:17:50;25.50;;;21.75;;
73959;SDS011;62316;48.920;2.342;2024-03-06T02:20:24;24.00;;;21.00;;
73959;SDS011;62316;48.920;2.342;2024-03-06T02:22:50;30.25;;;23.50;;
73959;SDS011;62316;48.920;2.342;2024-03-06T02:25:16;20.00;;;19.00;;
73959;SDS011;62316;48.920;2.342;2024-03-06T02:27:42;29.25;;;24.00;;
73959;SDS011;62316;48.920;2.342;2024-03-06T02:30:08;26.25;;;22.00;;
73959;SDS011;62316;48.920;2.342;2024-03-06T02:32:35;29.75;;;25.50;;
73959;SDS011;62316;48.920;2.342;2024-03-06T02:35:01;23.75;;;23.00;;
73959;SDS011;62316;48.920;2.342;2024-03-06T02:37:28;23.50;;;16.75;;
73959;SDS011;62316;48.920;2.342;2024-03-06T02:39:53;25.75;;;22.25;;
73959;SDS011;62316;48.920;2.342;2024-03-06T02:42:23;25.50;;;23.50;;
73959;SDS011;62316;48.920;2.342;2024-03-06T02:44:48;34.50;;;27.75;;
73959;SDS011;62316;48.920;2.342;2024-03-06T02:47:16;23.00;;;21.50;;
73959;SDS011;62316;48.920;2.342;2024-03-06T02:49:41;25.25;;;24.75;;
73959;SDS011;62316;48.920;2.342;2024-03-06T02:52:07;28.25;;;26.25;;
73959;SDS011;62316;48.920;2.342;2024-03-06T02:54:32;29.75;;;26.00;;
73959;SDS011;62316;48.920;2.342;2024-03-06T02:56:57;28.50;;;23.75;;
73959;SDS011;62316;48.920;2.342;2024-03-06T02:59:22;28.75;;;24.00;;
73959;SDS011;62316;48.920;2.342;2024-03-06T03:01:49;21.50;;;20.75;;
73959;SDS011;62316;48.920;2.342;2024-03-06T03:04:14;31.00;;;26.00;;
73959;SDS011;62316;48.920;2.342;2024-03-06T03:06:39;24.25;;;24.25;;
73959;SDS011;62316;48.920;2.342;2024-03-06T03:09:04;22.50;;;19.75;;
73959;SDS011;62316;48.920;2.342;2024-03-06T03:11:30;31.75;;;28.75;;
73959;SDS011;62316;48.920;2.342;2024-03-06T03:13:56;36.50;;;31.00;;
73959;SDS011;62316;48.920;2.342;2024-03-06T03:16:22;31.75;;;26.75;;
73959;SDS011;62316;48.920;2.342;2024-03-06T03:18:47;27.00;;;25.75;;
73959;SDS011;62316;48.920;2.342;2024-03-06T03:21:15;37.25;;;29.00;;
73959;SDS011;62316;48.920;2.342;2024-03-06T03:23:40;39.75;;;35.00;;
73959;SDS011;62316;48.920;2.342;2024-03-06T03:26:06;39.25;;;34.00;;
73959;SDS011;62316;48.920;2.342;2024-03-06T03:28:32;43.75;;;33.25;;
73959;SDS011;62316;48.920;2.342;2024-03-06T03:30:57;34.25;;;30.25;;
73959;SDS011;62316;48.920;2.342;2024-03-06T03:33:23;47.00;;;37.00;;
73959;SDS011;62316;48.920;2.342;2024-03-06T03:35:48;42.25;;;34.50;;
73959;SDS011;62316;48.920;2.342;2024-03-06T03:38:13;45.50;;;37.25;;
73959;SDS011;62316;48.920;2.342;2024-03-06T03:40:38;47.50;;;36.25;;
73959;SDS011;62316;48.920;2.342;2024-03-06T03:43:04;39.25;;;29.25;;
73959;SDS011;62316;48.920;2.342;2024-03-06T03:45:32;42.50;;;37.50;;
73959;SDS011;62316;48.920;2.342;2024-03-06T03:47:57;47.75;;;39.75;;
73959;SDS011;62316;48.920;2.342;2024-03-06T03:50:22;54.75;;;40.50;;
73959;SDS011;62316;48.920;2.342;2024-03-06T03:52:48;40.00;;;34.75;;
73959;SDS011;62316;48.920;2.342;2024-03-06T03:55:13;36.25;;;32.00;;
73959;SDS011;62316;48.920;2.342;2024-03-06T03:57:38;46.25;;;37.50;;
73959;SDS011;62316;48.920;2.342;2024-03-06T04:00:04;48.00;;;39.25;;
73959;SDS011;62316;48.920;2.342;2024-03-06T04:02:37;44.00;;;36.25;;
73959;SDS011;62316;48.920;2.342;2024-03-06T04:05:02;51.75;;;37.00;;
73959;SDS011;62316;48.920;2.342;2024-03-06T04:07:27;27.25;;;21.25;;
73959;SDS011;62316;48.920;2.342;2024-03-06T04:09:52;42.00;;;36.00;;
73959;SDS011;62316;48.920;2.342;2024-03-06T04:12:18;39.00;;;34.25;;
73959;SDS011;62316;48.920;2.342;2024-03-06T04:14:43;41.25;;;36.00;;
73959;SDS011;62316;48.920;2.342;2024-03-06T04:17:09;43.50;;;33.00;;
73959;SDS011;62316;48.920;2.342;2024-03-06T04:19:34;52.50;;;39.25;;
73959;SDS011;62316;48.920;2.342;2024-03-06T04:21:59;42.50;;;35.00;;
73959;SDS011;62316;48.920;2.342;2024-03-06T04:24:27;34.75;;;32.25;;
73959;SDS011;62316;48.920;2.342;2024-03-06T04:26:53;43.00;;;35.25;;
73959;SDS011;62316;48.920;2.342;2024-03-06T04:29:18;37.25;;;29.00;;
73959;SDS011;62316;48.920;2.342;2024-03-06T04:31:43;36.00;;;30.50;;
73959;SDS011;62316;48.920;2.342;2024-03-06T04:34:08;46.00;;;35.25;;
73959;SDS011;62316;48.920;2.342;2024-03-06T04:36:34;44.75;;;37.25;;
73959;SDS011;62316;48.920;2.342;2024-03-06T04:38:59;46.00;;;36.50;;
73959;SDS011;62316;48.920;2.342;2024-03-06T04:41:27;39.25;;;32.75;;
73959;SDS011;62316;48.920;2.342;2024-03-06T04:43:52;46.50;;;38.00;;
73959;SDS011;62316;48.920;2.342;2024-03-06T04:46:17;35.25;;;32.00;;
73959;SDS011;62316;48.920;2.342;2024-03-06T04:48:43;44.00;;;33.00;;
73959;SDS011;62316;48.920;2.342;2024-03-06T04:51:09;39.50;;;32.75;;
73959;SDS011;62316;48.920;2.342;2024-03-06T04:53:35;44.25;;;38.00;;
73959;SDS011;62316;48.920;2.342;2024-03-06T04:56:00;35.25;;;30.00;;
73959;SDS011;62316;48.920;2.342;2024-03-06T04:58:25;40.75;;;36.75;;
73959;SDS011;62316;48.920;2.342;2024-03-06T05:00:50;40.00;;;34.25;;
73959;SDS011;62316;48.920;2.342;2024-03-06T05:03:16;45.00;;;37.75;;
73959;SDS011;62316;48.920;2.342;2024-03-06T05:05:41;42.75;;;36.00;;
73959;SDS011;62316;48.920;2.342;2024-03-06T05:08:06;43.25;;;38.00;;
73959;SDS011;62316;48.920;2.342;2024-03-06T05:10:32;37.25;;;34.25;;
73959;SDS011;62316;48.920;2.342;2024-03-06T05:12:57;33.50;;;28.50;;
73959;SDS011;62316;48.920;2.342;2024-03-06T05:15:22;44.50;;;34.75;;
73959;SDS011;62316;48.920;2.342;2024-03-06T05:17:47;37.25;;;28.00;;
73959;SDS011;62316;48.920;2.342;2024-03-06T05:20:13;37.00;;;32.50;;
73959;SDS011;62316;48.920;2.342;2024-03-06T05:22:39;36.00;;;31.25;;
73959;SDS011;62316;48.920;2.342;2024-03-06T05:25:04;35.00;;;34.00;;
73959;SDS011;62316;48.920;2.342;2024-03-06T05:27:30;34.25;;;28.75;;
73959;SDS011;62316;48.920;2.342;2024-03-06T05:29:55;37.25;;;31.25;;
73959;SDS011;62316;48.920;2.342;2024-03-06T05:32:21;41.75;;;34.00;;
73959;SDS011;62316;48.920;2.342;2024-03-06T05:34:46;38.75;;;33.00;;
73959;SDS011;62316;48.920;2.342;2024-03-06T05:37:11;26.75;;;25.25;;
73959;SDS011;62316;48.920;2.342;2024-03-06T05:39:37;46.50;;;38.75;;
73959;SDS011;62316;48.920;2.342;2024-03-06T05:42:03;42.00;;;35.25;;
73959;SDS011;62316;48.920;2.342;2024-03-06T05:44:29;23.75;;;23.00;;
73959;SDS011;62316;48.920;2.342;2024-03-06T05:46:55;42.25;;;36.25;;
73959;SDS011;62316;48.920;2.342;2024-03-06T05:49:20;39.50;;;34.25;;
73959;SDS011;62316;48.920;2.342;2024-03-06T05:51:46;38.25;;;29.50;;
73959;SDS011;62316;48.920;2.342;2024-03-06T05:54:11;36.00;;;31.25;;
73959;SDS011;62316;48.920;2.342;2024-03-06T05:56:36;33.50;;;30.75;;
73959;SDS011;62316;48.920;2.342;2024-03-06T05:59:02;47.00;;;30.25;;
73959;SDS011;62316;48.920;2.342;2024-03-06T06:01:30;44.75;;;34.25;;
73959;SDS011;62316;48.920;2.342;2024-03-06T06:03:55;51.75;;;39.25;;
73959;SDS011;62316;48.920;2.342;2024-03-06T06:06:20;40.50;;;34.25;;
73959;SDS011;62316;48.920;2.342;2024-03-06T06:08:45;36.75;;;32.00;;
73959;SDS011;62316;48.920;2.342;2024-03-06T06:11:11;34.25;;;29.25;;
73959;SDS011;62316;48.920;2.342;2024-03-06T06:13:36;39.75;;;33.50;;
73959;SDS011;62316;48.920;2.342;2024-03-06T06:16:02;31.50;;;24.00;;
73959;SDS011;62316;48.920;2.342;2024-03-06T06:18:30;33.25;;;24.50;;
73959;SDS011;62316;48.920;2.342;2024-03-06T06:20:56;27.75;;;26.50;;
73959;SDS011;62316;48.920;2.342;2024-03-06T06:23:22;30.50;;;27.25;;
73959;SDS011;62316;48.920;2.342;2024-03-06T06:25:47;30.00;;;27.75;;
73959;SDS011;62316;48.920;2.342;2024-03-06T06:28:12;32.75;;;24.00;;
73959;SDS011;62316;48.920;2.342;2024-03-06T06:30:41;26.50;;;22.75;;
73959;SDS011;62316;48.920;2.342;2024-03-06T06:33:06;29.25;;;26.50;;
73959;SDS011;62316;48.920;2.342;2024-03-06T06:35:31;23.25;;;21.00;;
73959;SDS011;62316;48.920;2.342;2024-03-06T06:37:57;23.25;;;18.75;;
73959;SDS011;62316;48.920;2.342;2024-03-06T06:40:22;13.50;;;13.25;;
73959;SDS011;62316;48.920;2.342;2024-03-06T06:42:49;23.00;;;22.75;;
73959;SDS011;62316;48.920;2.342;2024-03-06T06:45:17;21.00;;;18.25;;
73959;SDS011;62316;48.920;2.342;2024-03-06T06:50:24;28.00;;;26.50;;
73959;SDS011;62316;48.920;2.342;2024-03-06T06:52:52;32.75;;;26.25;;
73959;SDS011;62316;48.920;2.342;2024-03-06T06:55:29;17.25;;;14.25;;
73959;SDS011;62316;48.920;2.342;2024-03-06T06:58:10;36.00;;;26.75;;
73959;SDS011;62316;48.920;2.342;2024-03-06T07:00:35;30.25;;;26.50;;
73959;SDS011;62316;48.920;2.342;2024-03-06T07:03:11;26.50;;;23.25;;
73959;SDS011;62316;48.920;2.342;2024-03-06T07:05:36;33.75;;;27.25;;
73959;SDS011;62316;48.920;2.342;2024-03-06T07:08:02;32.75;;;28.25;;
73959;SDS011;62316;48.920;2.342;2024-03-06T07:10:27;37.75;;;30.75;;
73959;SDS011;62316;48.920;2.342;2024-03-06T07:13:02;40.75;;;36.25;;
73959;SDS011;62316;48.920;2.342;2024-03-06T07:15:39;26.00;;;22.50;;
73959;SDS011;62316;48.920;2.342;2024-03-06T07:18:04;22.00;;;16.25;;
73959;SDS011;62316;48.920;2.342;2024-03-06T07:20:30;34.50;;;28.25;;
73959;SDS011;62316;48.920;2.342;2024-03-06T07:22:59;31.00;;;28.25;;
73959;SDS011;62316;48.920;2.342;2024-03-06T07:25:25;35.75;;;29.75;;
73959;SDS011;62316;48.920;2.342;2024-03-06T07:28:06;34.25;;;30.50;;
73959;SDS011;62316;48.920;2.342;2024-03-06T07:30:52;28.00;;;20.75;;
73959;SDS011;62316;48.920;2.342;2024-03-06T07:33:17;33.75;;;31.50;;
73959;SDS011;62316;48.920;2.342;2024-03-06T07:35:43;25.25;;;22.25;;
73959;SDS011;62316;48.920;2.342;2024-03-06T07:38:08;33.75;;;32.00;;
73959;SDS011;62316;48.920;2.342;2024-03-06T07:40:34;27.50;;;25.50;;
73959;SDS011;62316;48.920;2.342;2024-03-06T07:43:00;31.00;;;25.75;;
73959;SDS011;62316;48.920;2.342;2024-03-06T07:45:25;31.00;;;27.50;;
73959;SDS011;62316;48.920;2.342;2024-03-06T07:47:51;33.00;;;27.50;;
73959;SDS011;62316;48.920;2.342;2024-03-06T07:50:16;33.50;;;30.75;;
73959;SDS011;62316;48.920;2.342;2024-03-06T07:52:44;38.50;;;30.50;;
73959;SDS011;62316;48.920;2.342;2024-03-06T07:55:10;36.00;;;30.75;;
73959;SDS011;62316;48.920;2.342;2024-03-06T07:57:35;40.75;;;33.50;;
73959;SDS011;62316;48.920;2.342;2024-03-06T08:00:00;33.75;;;31.75;;
73959;SDS011;62316;48.920;2.342;2024-03-06T08:02:25;32.75;;;27.75;;
73959;SDS011;62316;48.920;2.342;2024-03-06T08:04:50;28.25;;;28.25;;
73959;SDS011;62316;48.920;2.342;2024-03-06T08:07:16;24.25;;;23.75;;
73959;SDS011;62316;48.920;2.342;2024-03-06T08:09:41;30.25;;;26.00;;
73959;SDS011;62316;48.920;2.342;2024-03-06T08:12:08;25.25;;;22.25;;
73959;SDS011;62316;48.920;2.342;2024-03-06T08:14:33;32.00;;;27.50;;
73959;SDS011;62316;48.920;2.342;2024-03-06T08:16:58;34.25;;;30.50;;
73959;SDS011;62316;48.920;2.342;2024-03-06T08:19:24;22.50;;;19.50;;
73959;SDS011;62316;48.920;2.342;2024-03-06T08:21:50;27.00;;;24.00;;
73959;SDS011;62316;48.920;2.342;2024-03-06T08:24:16;29.50;;;27.25;;
73959;SDS011;62316;48.920;2.342;2024-03-06T08:26:42;30.25;;;24.75;;
73959;SDS011;62316;48.920;2.342;2024-03-06T08:29:07;32.00;;;29.00;;
73959;SDS011;62316;48.920;2.342;2024-03-06T08:31:32;34.25;;;31.00;;
73959;SDS011;62316;48.920;2.342;2024-03-06T08:33:58;35.50;;;30.25;;
73959;SDS011;62316;48.920;2.342;2024-03-06T08:36:23;38.50;;;26.50;;
73959;SDS011;62316;48.920;2.342;2024-03-06T08:38:49;33.25;;;29.50;;
73959;SDS011;62316;48.920;2.342;2024-03-06T08:41:14;33.75;;;32.75;;
73959;SDS011;62316;48.920;2.342;2024-03-06T08:43:40;29.75;;;29.50;;
73959;SDS011;62316;48.920;2.342;2024-03-06T08:46:05;33.75;;;29.25;;
73959;SDS011;62316;48.920;2.342;2024-03-06T08:48:30;31.00;;;26.75;;
73959;SDS011;62316;48.920;2.342;2024-03-06T08:50:56;31.00;;;28.25;;
73959;SDS011;62316;48.920;2.342;2024-03-06T08:53:21;40.25;;;34.25;;
73959;SDS011;62316;48.920;2.342;2024-03-06T08:55:49;34.75;;;30.50;;
73959;SDS011;62316;48.920;2.342;2024-03-06T08:58:15;30.25;;;27.00;;
73959;SDS011;62316;48.920;2.342;2024-03-06T09:00:40;25.00;;;25.00;;
73959;SDS011;62316;48.920;2.342;2024-03-06T09:03:05;41.00;;;33.50;;
73959;SDS011;62316;48.920;2.342;2024-03-06T09:05:40;27.00;;;26.25;;
73959;SDS011;62316;48.920;2.342;2024-03-06T09:08:09;33.75;;;30.75;;
73959;SDS011;62316;48.920;2.342;2024-03-06T09:10:36;31.00;;;29.25;;
73959;SDS011;62316;48.920;2.342;2024-03-06T09:13:02;31.50;;;29.00;;
73959;SDS011;62316;48.920;2.342;2024-03-06T09:15:27;30.50;;;28.25;;
73959;SDS011;62316;48.920;2.342;2024-03-06T09:17:53;32.75;;;27.75;;
73959;SDS011;62316;48.920;2.342;2024-03-06T09:20:18;33.50;;;27.50;;
73959;SDS011;62316;48.920;2.342;2024-03-06T09:22:51;45.75;;;38.75;;
73959;SDS011;62316;48.920;2.342;2024-03-06T09:25:19;46.50;;;35.50;;
73959;SDS011;62316;48.920;2.342;2024-03-06T09:27:44;29.50;;;27.50;;
73959;SDS011;62316;48.920;2.342;2024-03-06T09:30:10;29.00;;;25.75;;
73959;SDS011;62316;48.920;2.342;2024-03-06T09:32:37;32.00;;;28.00;;
73959;SDS011;62316;48.920;2.342;2024-03-06T09:37:53;31.50;;;28.25;;
73959;SDS011;62316;48.920;2.342;2024-03-06T09:40:22;26.75;;;25.00;;
73959;SDS011;62316;48.920;2.342;2024-03-06T09:42:49;29.50;;;27.25;;
73959;SDS011;62316;48.920;2.342;2024-03-06T09:45:14;29.25;;;25.50;;
73959;SDS011;62316;48.920;2.342;2024-03-06T09:47:39;33.75;;;30.75;;
73959;SDS011;62316;48.920;2.342;2024-03-06T09:50:07;42.50;;;35.75;;
73959;SDS011;62316;48.920;2.342;2024-03-06T09:52:33;35.25;;;31.25;;
73959;SDS011;62316;48.920;2.342;2024-03-06T09:55:00;42.50;;;34.25;;
73959;SDS011;62316;48.920;2.342;2024-03-06T10:00:30;43.50;;;36.00;;
73959;SDS011;62316;48.920;2.342;2024-03-06T10:02:57;34.50;;;29.50;;
73959;SDS011;62316;48.920;2.342;2024-03-06T10:08:29;30.00;;;24.00;;
73959;SDS011;62316;48.920;2.342;2024-03-06T10:11:03;33.50;;;28.00;;
73959;SDS011;62316;48.920;2.342;2024-03-06T10:13:40;29.75;;;24.50;;
73959;SDS011;62316;48.920;2.342;2024-03-06T10:16:05;37.00;;;29.50;;
73959;SDS011;62316;48.920;2.342;2024-03-06T10:18:35;44.00;;;33.50;;
73959;SDS011;62316;48.920;2.342;2024-03-06T10:24:30;27.50;;;22.50;;
73959;SDS011;62316;48.920;2.342;2024-03-06T10:26:56;33.75;;;27.75;;
73959;SDS011;62316;48.920;2.342;2024-03-06T10:29:24;21.50;;;19.25;;
73959;SDS011;62316;48.920;2.342;2024-03-06T10:34:26;26.75;;;20.25;;
73959;SDS011;62316;48.920;2.342;2024-03-06T10:39:19;28.50;;;26.00;;
73959;SDS011;62316;48.920;2.342;2024-03-06T10:41:45;31.75;;;24.75;;
73959;SDS011;62316;48.920;2.342;2024-03-06T10:44:11;30.00;;;26.50;;
73959;SDS011;62316;48.920;2.342;2024-03-06T10:46:41;24.75;;;23.00;;
73959;SDS011;62316;48.920;2.342;2024-03-06T10:49:08;28.00;;;25.00;;
73959;SDS011;62316;48.920;2.342;2024-03-06T10:51:36;30.25;;;26.25;;
73959;SDS011;62316;48.920;2.342;2024-03-06T10:54:02;31.50;;;26.50;;
73959;SDS011;62316;48.920;2.342;2024-03-06T10:56:28;44.75;;;37.25;;
73959;SDS011;62316;48.920;2.342;2024-03-06T10:58:55;30.25;;;27.75;;
73959;SDS011;62316;48.920;2.342;2024-03-06T11:01:22;33.50;;;32.00;;
73959;SDS011;62316;48.920;2.342;2024-03-06T11:03:48;37.50;;;31.50;;
73959;SDS011;62316;48.920;2.342;2024-03-06T11:06:13;35.25;;;29.25;;
73959;SDS011;62316;48.920;2.342;2024-03-06T11:08:39;33.75;;;33.00;;
73959;SDS011;62316;48.920;2.342;2024-03-06T11:11:20;36.00;;;34.75;;
73959;SDS011;62316;48.920;2.342;2024-03-06T11:13:46;42.00;;;35.50;;
73959;SDS011;62316;48.920;2.342;2024-03-06T11:16:12;29.50;;;29.50;;
73959;SDS011;62316;48.920;2.342;2024-03-06T11:23:31;43.00;;;37.50;;
73959;SDS011;62316;48.920;2.342;2024-03-06T11:28:26;39.00;;;35.50;;
73959;SDS011;62316;48.920;2.342;2024-03-06T11:30:55;44.75;;;36.50;;
73959;SDS011;62316;48.920;2.342;2024-03-06T11:33:22;37.00;;;35.25;;
73959;SDS011;62316;48.920;2.342;2024-03-06T11:38:31;29.75;;;25.50;;
73959;SDS011;62316;48.920;2.342;2024-03-06T11:40:57;29.50;;;25.75;;
73959;SDS011;62316;48.920;2.342;2024-03-06T11:43:26;31.50;;;29.00;;
73959;SDS011;62316;48.920;2.342;2024-03-06T11:45:52;34.50;;;34.00;;
73959;SDS011;62316;48.920;2.342;2024-03-06T11:48:17;31.50;;;27.00;;
73959;SDS011;62316;48.920;2.342;2024-03-06T11:50:45;28.50;;;24.25;;
73959;SDS011;62316;48.920;2.342;2024-03-06T11:53:11;32.00;;;30.00;;
73959;SDS011;62316;48.920;2.342;2024-03-06T11:55:36;26.25;;;26.25;;
73959;SDS011;62316;48.920;2.342;2024-03-06T11:58:10;27.50;;;26.00;;
73959;SDS011;62316;48.920;2.342;2024-03-06T12:00:37;27.00;;;22.50;;
73959;SDS011;62316;48.920;2.342;2024-03-06T12:03:02;21.00;;;19.00;;
73959;SDS011;62316;48.920;2.342;2024-03-06T12:05:29;24.00;;;21.75;;
73959;SDS011;62316;48.920;2.342;2024-03-06T12:07:54;23.00;;;22.00;;
73959;SDS011;62316;48.920;2.342;2024-03-06T12:10:26;30.25;;;26.00;;
73959;SDS011;62316;48.920;2.342;2024-03-06T12:12:51;26.00;;;24.25;;
73959;SDS011;62316;48.920;2.342;2024-03-06T12:15:16;31.00;;;27.50;;
73959;SDS011;62316;48.920;2.342;2024-03-06T12:17:44;24.25;;;22.25;;
73959;SDS011;62316;48.920;2.342;2024-03-06T12:20:12;26.00;;;24.25;;
73959;SDS011;62316;48.920;2.342;2024-03-06T12:22:44;25.00;;;21.50;;
73959;SDS011;62316;48.920;2.342;2024-03-06T12:25:09;17.00;;;15.25;;
73959;SDS011;62316;48.920;2.342;2024-03-06T12:27:35;33.00;;;23.50;;
73959;SDS011;62316;48.920;2.342;2024-03-06T12:30:10;18.25;;;16.75;;
73959;SDS011;62316;48.920;2.342;2024-03-06T12:32:37;25.00;;;17.75;;
73959;SDS011;62316;48.920;2.342;2024-03-06T12:35:06;20.25;;;18.25;;
73959;SDS011;62316;48.920;2.342;2024-03-06T12:37:32;18.50;;;16.50;;
73959;SDS011;62316;48.920;2.342;2024-03-06T12:39:57;20.00;;;18.00;;
73959;SDS011;62316;48.920;2.342;2024-03-06T12:42:23;24.50;;;20.50;;
73959;SDS011;62316;48.920;2.342;2024-03-06T12:44:55;19.00;;;17.50;;
73959;SDS011;62316;48.920;2.342;2024-03-06T12:47:27;19.75;;;18.75;;
73959;SDS011;62316;48.920;2.342;2024-03-06T12:50:01;10.50;;;9.00;;
73959;SDS011;62316;48.920;2.342;2024-03-06T12:52:27;15.50;;;13.75;;
73959;SDS011;62316;48.920;2.342;2024-03-06T12:54:53;19.25;;;18.00;;
73959;SDS011;62316;48.920;2.342;2024-03-06T12:57:22;25.25;;;23.00;;
73959;SDS011;62316;48.920;2.342;2024-03-06T12:59:47;19.75;;;17.00;;
73959;SDS011;62316;48.920;2.342;2024-03-06T13:02:12;23.25;;;20.75;;
73959;SDS011;62316;48.920;2.342;2024-03-06T13:04:37;19.00;;;18.75;;
73959;SDS011;62316;48.920;2.342;2024-03-06T13:07:03;18.00;;;14.25;;
73959;SDS011;62316;48.920;2.342;2024-03-06T13:09:31;25.00;;;19.50;;
73959;SDS011;62316;48.920;2.342;2024-03-06T13:11:56;17.00;;;14.75;;
73959;SDS011;62316;48.920;2.342;2024-03-06T13:14:22;72.00;;;56.25;;
73959;SDS011;62316;48.920;2.342;2024-03-06T13:16:47;22.00;;;20.00;;
73959;SDS011;62316;48.920;2.342;2024-03-06T13:19:21;16.00;;;14.00;;
73959;SDS011;62316;48.920;2.342;2024-03-06T13:21:47;19.75;;;14.25;;
73959;SDS011;62316;48.920;2.342;2024-03-06T13:24:12;16.25;;;16.00;;
73959;SDS011;62316;48.920;2.342;2024-03-06T13:26:41;11.00;;;10.50;;
73959;SDS011;62316;48.920;2.342;2024-03-06T13:29:11;12.25;;;10.75;;
73959;SDS011;62316;48.920;2.342;2024-03-06T13:31:36;17.75;;;16.75;;
73959;SDS011;62316;48.920;2.342;2024-03-06T13:34:02;13.50;;;13.50;;
73959;SDS011;62316;48.920;2.342;2024-03-06T13:36:28;14.50;;;12.00;;
73959;SDS011;62316;48.920;2.342;2024-03-06T13:38:54;20.25;;;17.00;;
73959;SDS011;62316;48.920;2.342;2024-03-06T13:41:19;17.25;;;16.75;;
73959;SDS011;62316;48.920;2.342;2024-03-06T13:43:44;21.50;;;18.75;;
73959;SDS011;62316;48.920;2.342;2024-03-06T13:46:09;22.00;;;17.00;;
73959;SDS011;62316;48.920;2.342;2024-03-06T13:48:34;18.25;;;17.00;;
73959;SDS011;62316;48.920;2.342;2024-03-06T13:51:01;19.75;;;18.75;;
73959;SDS011;62316;48.920;2.342;2024-03-06T13:53:26;19.25;;;17.50;;
73959;SDS011;62316;48.920;2.342;2024-03-06T13:55:52;14.25;;;14.25;;
73959;SDS011;62316;48.920;2.342;2024-03-06T13:58:17;17.00;;;13.25;;
73959;SDS011;62316;48.920;2.342;2024-03-06T14:00:42;15.75;;;14.75;;
73959;SDS011;62316;48.920;2.342;2024-03-06T14:03:07;15.25;;;14.50;;
73959;SDS011;62316;48.920;2.342;2024-03-06T14:05:32;12.75;;;11.00;;
73959;SDS011;62316;48.920;2.342;2024-03-06T14:07:58;15.00;;;14.00;;
73959;SDS011;62316;48.920;2.342;2024-03-06T14:10:23;15.00;;;13.25;;
73959;SDS011;62316;48.920;2.342;2024-03-06T14:12:49;15.25;;;14.75;;
73959;SDS011;62316;48.920;2.342;2024-03-06T14:15:20;16.75;;;12.00;;
73959;SDS011;62316;48.920;2.342;2024-03-06T14:17:47;18.25;;;13.25;;
73959;SDS011;62316;48.920;2.342;2024-03-06T14:20:12;14.75;;;12.00;;
73959;SDS011;62316;48.920;2.342;2024-03-06T14:22:38;18.00;;;16.50;;
73959;SDS011;62316;48.920;2.342;2024-03-06T14:25:03;12.25;;;12.25;;
73959;SDS011;62316;48.920;2.342;2024-03-06T14:27:28;15.25;;;14.25;;
73959;SDS011;62316;48.920;2.342;2024-03-06T14:29:54;15.00;;;10.00;;
73959;SDS011;62316;48.920;2.342;2024-03-06T14:32:19;19.00;;;16.50;;
73959;SDS011;62316;48.920;2.342;2024-03-06T14:34:44;13.00;;;13.00;;
73959;SDS011;62316;48.920;2.342;2024-03-06T14:37:10;13.00;;;12.00;;
73959;SDS011;62316;48.920;2.342;2024-03-06T14:39:35;10.25;;;8.00;;
73959;SDS011;62316;48.920;2.342;2024-03-06T14:42:08;16.75;;;14.00;;
73959;SDS011;62316;48.920;2.342;2024-03-06T14:44:33;18.25;;;17.50;;
73959;SDS011;62316;48.920;2.342;2024-03-06T14:46:58;21.00;;;18.50;;